createdAt,value
2022-07-29T00:01:19.503Z,43.84
2022-07-29T00:04:21.862Z,42.89
2022-07-29T00:07:23.561Z,43.43
2022-07-29T00:10:24.972Z,47.10
2022-07-29T00:13:32.479Z,46.13
2022-07-29T00:16:34.640Z,50.64
2022-07-29T00:19:36.142Z,50.20
2022-07-29T00:22:40.516Z,48.74
2022-07-29T00:25:42.091Z,49.70
2022-07-29T00:28:43.612Z,49.00
2022-07-29T00:31:45.190Z,49.31
2022-07-29T00:35:05.333Z,49.52
2022-07-29T00:38:07.080Z,51.89
2022-07-29T00:41:08.527Z,53.11
2022-07-29T00:44:09.968Z,54.47
2022-07-29T00:47:13.028Z,57.01
2022-07-29T00:50:15.019Z,58.13
2022-07-29T00:53:16.623Z,59.81
2022-07-29T00:56:18.119Z,59.73
2022-07-29T00:59:19.634Z,60.21
2022-07-29T01:02:21.097Z,59.32
2022-07-29T01:05:25.573Z,61.70
2022-07-29T01:08:48.696Z,63.29
2022-07-29T01:11:51.118Z,64.01
2022-07-29T01:14:54.246Z,65.62
2022-07-29T01:18:12.042Z,68.28
2022-07-29T01:21:28.983Z,66.82
2022-07-29T01:24:44.735Z,74.29
2022-07-29T01:28:01.992Z,68.49
2022-07-29T01:31:05.654Z,75.43
2022-07-29T01:34:12.401Z,72.40
2022-07-29T01:37:24.800Z,76.78
2022-07-29T01:40:37.216Z,67.01
2022-07-29T01:43:49.754Z,65.73
2022-07-29T01:46:57.084Z,67.53
2022-07-29T01:50:00.682Z,67.45
2022-07-29T01:53:05.867Z,64.32
2022-07-29T01:56:11.189Z,63.41
2022-07-29T01:59:12.702Z,61.62
2022-07-29T02:02:17.535Z,60.44
2022-07-29T02:05:21.346Z,60.03
2022-07-29T02:08:24.295Z,62.07
2022-07-29T02:11:26.048Z,61.49
2022-07-29T02:14:29.621Z,62.83
2022-07-29T02:17:40.928Z,61.82
2022-07-29T02:20:46.680Z,61.28
2022-07-29T02:23:51.391Z,60.07
2022-07-29T02:26:57.432Z,60.23
2022-07-29T02:30:01.457Z,62.36
2022-07-29T02:33:04.507Z,59.93
2022-07-29T02:36:06.314Z,57.51
2022-07-29T02:39:10.829Z,55.62
2022-07-29T02:42:16.099Z,53.38
2022-07-29T02:45:18.039Z,52.60
2022-07-29T02:48:23.497Z,53.71
2022-07-29T02:52:01.232Z,51.91
2022-07-29T02:55:11.717Z,54.43
2022-07-29T02:58:29.736Z,55.35
2022-07-29T03:01:34.852Z,52.74
2022-07-29T03:04:39.623Z,54.15
2022-07-29T03:07:44.090Z,53.18
2022-07-29T03:10:47.997Z,52.50
2022-07-29T03:13:49.828Z,53.72
2022-07-29T03:16:52.196Z,53.48
2022-07-29T03:19:54.176Z,53.08
2022-07-29T03:22:55.843Z,55.06
2022-07-29T03:25:57.776Z,54.81
2022-07-29T03:28:59.353Z,57.30
2022-07-29T03:32:07.147Z,55.58
2022-07-29T03:35:09.387Z,53.33
2022-07-29T03:38:10.940Z,50.93
2022-07-29T03:41:15.403Z,50.62
2022-07-29T03:44:18.853Z,50.97
2022-07-29T03:47:47.986Z,49.36
2022-07-29T03:50:46.945Z,50.62
2022-07-29T03:53:48.489Z,49.94
2022-07-29T03:56:53.405Z,49.43
2022-07-29T03:59:56.099Z,49.20
2022-07-29T04:02:58.209Z,49.83
2022-07-29T04:06:06.765Z,50.60
2022-07-29T04:09:09.857Z,48.71
2022-07-29T04:12:11.658Z,48.29
2022-07-29T04:15:13.261Z,49.69
2022-07-29T04:18:14.702Z,49.29
2022-07-29T04:21:16.263Z,50.51
2022-07-29T04:24:18.746Z,49.63
2022-07-29T04:27:20.571Z,50.33
2022-07-29T04:30:22.615Z,50.50
2022-07-29T04:33:24.937Z,50.05
2022-07-29T04:36:28.884Z,50.65
2022-07-29T04:39:31.458Z,52.14
2022-07-29T04:42:32.869Z,53.30
2022-07-29T04:45:34.411Z,52.49
2022-07-29T04:48:36.134Z,52.69
2022-07-29T04:51:37.734Z,53.57
2022-07-29T04:54:39.181Z,52.86
2022-07-29T04:57:40.740Z,54.24
2022-07-29T05:00:42.405Z,57.13
2022-07-29T05:03:44.117Z,59.79
2022-07-29T05:06:45.591Z,59.27
2022-07-29T05:09:47.030Z,60.51
2022-07-29T05:12:48.690Z,61.48
2022-07-29T05:15:50.686Z,59.50
2022-07-29T05:18:52.154Z,58.33
2022-07-29T05:21:53.687Z,56.38
2022-07-29T05:24:55.156Z,56.13
2022-07-29T05:27:57.202Z,60.97
2022-07-29T05:30:58.650Z,61.67
2022-07-29T05:34:00.521Z,58.54
2022-07-29T05:37:02.027Z,54.49
2022-07-29T05:40:04.339Z,58.06
2022-07-29T05:43:05.990Z,57.34
2022-07-29T05:46:07.512Z,59.33
2022-07-29T05:49:09.422Z,57.60
2022-07-29T05:52:11.450Z,58.45
2022-07-29T05:55:12.987Z,59.38
2022-07-29T05:58:14.651Z,61.41
2022-07-29T06:01:17.025Z,66.77
2022-07-29T06:04:18.808Z,70.34
2022-07-29T06:07:21.067Z,72.99
2022-07-29T06:10:23.948Z,71.05
2022-07-29T06:13:27.851Z,75.05
2022-07-29T06:16:30.405Z,73.05
2022-07-29T06:19:32.103Z,72.36
2022-07-29T06:22:33.584Z,79.08
2022-07-29T06:25:36.767Z,72.75
2022-07-29T06:28:38.546Z,73.35
2022-07-29T06:31:40.392Z,78.22
2022-07-29T06:34:43.381Z,77.12
2022-07-29T06:37:50.439Z,76.95
2022-07-29T06:41:11.083Z,63.17
2022-07-29T06:44:12.665Z,64.71
2022-07-29T06:47:14.830Z,70.45
2022-07-29T06:50:16.420Z,70.24
2022-07-29T06:53:18.316Z,77.25
2022-07-29T06:56:19.886Z,76.91
2022-07-29T06:59:28.339Z,76.79
2022-07-29T07:02:33.758Z,78.15
2022-07-29T07:05:36.346Z,76.17
2022-07-29T07:08:37.829Z,81.29
2022-07-29T07:11:39.402Z,82.94
2022-07-29T07:14:41.915Z,81.86
2022-07-29T07:17:43.679Z,90.13
2022-07-29T07:20:45.533Z,82.24
2022-07-29T07:23:47.362Z,80.62
2022-07-29T07:26:49.234Z,79.53
2022-07-29T07:29:50.774Z,85.01
2022-07-29T07:32:52.245Z,82.16
2022-07-29T07:35:53.742Z,85.85
2022-07-29T07:38:55.289Z,89.54
2022-07-29T07:41:57.097Z,84.49
2022-07-29T07:45:13.052Z,82.77
2022-07-29T07:48:15.651Z,81.85
2022-07-29T07:51:17.113Z,85.39
2022-07-29T07:54:20.882Z,79.65
2022-07-29T07:57:22.613Z,85.37
2022-07-29T08:00:24.531Z,88.40
2022-07-29T08:03:25.973Z,83.43
2022-07-29T08:06:27.455Z,84.00
2022-07-29T08:09:30.792Z,81.85
2022-07-29T08:12:32.418Z,83.23
2022-07-29T08:15:34.414Z,85.27
2022-07-29T08:18:35.873Z,83.32
2022-07-29T08:21:37.509Z,81.67
2022-07-29T08:24:45.140Z,89.30
2022-07-29T08:27:47.456Z,82.00
2022-07-29T08:30:48.939Z,90.84
2022-07-29T08:33:54.108Z,91.59
2022-07-29T08:36:57.025Z,87.18
2022-07-29T08:39:58.453Z,82.34
2022-07-29T08:43:06.539Z,89.02
2022-07-29T08:46:08.228Z,83.36
2022-07-29T08:49:10.151Z,83.31
2022-07-29T08:52:12.642Z,81.82
2022-07-29T08:55:16.536Z,80.94
2022-07-29T08:58:24.665Z,79.63
2022-07-29T09:01:35.852Z,78.62
2022-07-29T09:04:38.642Z,81.76
2022-07-29T09:07:40.852Z,79.89
2022-07-29T09:10:42.833Z,81.74
2022-07-29T09:13:44.319Z,83.83
2022-07-29T09:17:04.819Z,85.07
2022-07-29T09:20:15.208Z,82.61
2022-07-29T09:23:23.203Z,79.63
2022-07-29T09:26:30.009Z,75.10
2022-07-29T09:29:36.109Z,75.97
2022-07-29T09:32:58.207Z,86.80
2022-07-29T09:36:07.974Z,78.31
2022-07-29T09:39:09.625Z,80.63
2022-07-29T09:42:11.436Z,75.22
2022-07-29T09:45:26.551Z,79.49
2022-07-29T09:48:28.006Z,70.73
2022-07-29T09:51:38.166Z,77.68
2022-07-29T09:54:40.175Z,70.17
2022-07-29T09:57:41.673Z,70.78
2022-07-29T10:00:46.610Z,69.81
2022-07-29T10:03:53.245Z,72.51
2022-07-29T10:07:04.756Z,69.56
2022-07-29T10:10:07.006Z,74.83
2022-07-29T10:13:15.453Z,62.56
2022-07-29T10:16:18.795Z,65.14
2022-07-29T10:19:21.042Z,64.81
2022-07-29T10:22:51.492Z,60.64
2022-07-29T10:25:46.787Z,64.50
2022-07-29T10:28:48.181Z,60.71
2022-07-29T10:32:09.847Z,64.55
2022-07-29T10:35:29.658Z,72.16
2022-07-29T10:38:52.146Z,62.68
2022-07-29T10:42:20.012Z,62.30
2022-07-29T10:45:22.256Z,60.01
2022-07-29T10:48:24.815Z,58.16
2022-07-29T10:51:26.357Z,59.20
2022-07-29T10:54:47.145Z,58.57
2022-07-29T10:58:13.024Z,58.74
2022-07-29T11:01:37.740Z,57.63
2022-07-29T11:04:47.166Z,57.82
2022-07-29T11:08:20.173Z,57.46
2022-07-29T11:11:29.864Z,55.91
2022-07-29T11:14:53.298Z,56.36
2022-07-29T11:17:59.487Z,57.27
2022-07-29T11:21:02.066Z,54.76
2022-07-29T11:24:34.981Z,57.86
2022-07-29T11:27:40.518Z,56.08
2022-07-29T11:30:56.094Z,57.34
2022-07-29T11:33:58.600Z,53.99
2022-07-29T11:37:14.805Z,55.21
2022-07-29T11:40:17.398Z,54.88
2022-07-29T11:43:54.882Z,54.29
2022-07-29T11:46:56.765Z,55.89
2022-07-29T11:50:01.367Z,53.57
2022-07-29T11:53:13.163Z,54.15
2022-07-29T11:56:18.818Z,53.27
2022-07-29T11:59:21.056Z,54.83
2022-07-29T12:02:38.412Z,53.79
2022-07-29T12:05:51.838Z,53.71
2022-07-29T12:08:53.570Z,55.64
2022-07-29T12:12:04.957Z,52.42
2022-07-29T12:15:20.929Z,51.72
2022-07-29T12:18:24.299Z,51.00
2022-07-29T12:21:26.696Z,51.41
2022-07-29T12:24:45.271Z,51.60
2022-07-29T12:27:46.888Z,52.30
2022-07-29T12:30:51.739Z,51.76
2022-07-29T12:33:54.610Z,51.49
2022-07-29T12:36:56.600Z,48.18
2022-07-29T12:39:58.376Z,48.09
2022-07-29T12:43:12.099Z,48.55
2022-07-29T12:46:15.867Z,51.22
2022-07-29T12:49:24.083Z,49.76
2022-07-29T12:52:33.762Z,48.08
2022-07-29T12:55:49.891Z,46.04
2022-07-29T12:58:51.612Z,45.07
2022-07-29T13:01:53.430Z,46.42
2022-07-29T13:04:59.646Z,43.94
2022-07-29T13:08:22.016Z,42.28
2022-07-29T13:11:35.538Z,41.57
2022-07-29T13:14:41.135Z,44.11
2022-07-29T13:17:44.421Z,44.60
2022-07-29T13:20:50.045Z,42.04
2022-07-29T13:23:51.623Z,41.89
2022-07-29T13:26:53.309Z,41.36
2022-07-29T13:29:58.233Z,41.62
2022-07-29T13:33:01.195Z,42.92
2022-07-29T13:36:02.622Z,42.29
2022-07-29T13:39:04.698Z,40.60
2022-07-29T13:42:10.739Z,39.90
2022-07-29T13:45:12.760Z,42.96
2022-07-29T13:48:14.245Z,39.89
2022-07-29T13:51:15.721Z,36.98
2022-07-29T13:54:17.581Z,36.50
2022-07-29T13:57:19.054Z,35.20
2022-07-29T14:00:20.866Z,35.16
2022-07-29T14:03:22.333Z,35.72
2022-07-29T14:06:23.767Z,36.47
2022-07-29T14:09:25.376Z,39.91
2022-07-29T14:12:26.847Z,39.32
2022-07-29T14:15:28.319Z,38.75
2022-07-29T14:18:29.748Z,40.02
2022-07-29T14:21:31.523Z,40.22
2022-07-29T14:24:37.377Z,38.29
2022-07-29T14:27:39.227Z,37.49
2022-07-29T14:30:40.841Z,38.04
2022-07-29T14:33:42.613Z,38.90
2022-07-29T14:36:47.855Z,40.05
2022-07-29T14:39:49.386Z,39.46
2022-07-29T14:42:50.921Z,39.05
2022-07-29T14:45:54.232Z,40.18
2022-07-29T14:48:58.854Z,39.56
2022-07-29T14:52:00.639Z,39.08
2022-07-29T14:55:03.315Z,39.54
2022-07-29T14:58:10.972Z,40.13
2022-07-29T15:01:13.662Z,40.19
2022-07-29T15:04:15.235Z,38.59
2022-07-29T15:07:16.868Z,38.82
2022-07-29T15:10:18.497Z,38.40
2022-07-29T15:13:20.427Z,39.68
2022-07-29T15:16:21.943Z,39.96
2022-07-29T15:19:23.484Z,38.98
2022-07-29T15:22:24.917Z,39.82
2022-07-29T15:25:28.268Z,39.75
2022-07-29T15:28:29.986Z,40.15
2022-07-29T15:31:31.647Z,39.32
2022-07-29T15:34:33.170Z,39.32
2022-07-29T15:37:48.918Z,39.32
2022-07-29T15:40:51.100Z,39.42
2022-07-29T15:43:52.711Z,38.83
2022-07-29T15:47:09.280Z,38.79
2022-07-29T15:50:15.711Z,38.33
2022-07-29T15:53:17.229Z,38.83
2022-07-29T15:56:19.243Z,38.74
2022-07-29T15:59:22.055Z,38.20
2022-07-29T16:02:24.361Z,39.00
2022-07-29T16:05:29.634Z,37.92
2022-07-29T16:08:31.197Z,39.72
2022-07-29T16:11:32.867Z,39.63
2022-07-29T16:14:34.783Z,40.69
2022-07-29T16:17:36.372Z,38.31
2022-07-29T16:20:38.396Z,37.81
2022-07-29T16:23:40.206Z,38.99
2022-07-29T16:26:41.663Z,38.46
2022-07-29T16:29:43.150Z,41.41
2022-07-29T16:32:44.640Z,47.66
2022-07-29T16:35:46.216Z,53.17
2022-07-29T16:38:48.453Z,51.11
2022-07-29T16:41:49.959Z,49.63
2022-07-29T16:44:51.620Z,50.38
2022-07-29T16:47:58.469Z,54.24
2022-07-29T16:51:01.996Z,65.16
2022-07-29T16:54:03.452Z,67.37
2022-07-29T16:57:04.972Z,65.84
2022-07-29T17:00:07.302Z,60.29
2022-07-29T17:03:08.826Z,55.94
2022-07-29T17:06:11.735Z,56.99
2022-07-29T17:09:15.117Z,58.49
2022-07-29T17:12:16.692Z,58.76
2022-07-29T17:15:18.924Z,58.79
2022-07-29T17:18:20.329Z,60.49
2022-07-29T17:21:23.770Z,62.03
2022-07-29T17:24:25.302Z,65.72
2022-07-29T17:27:26.900Z,69.10
2022-07-29T17:30:29.553Z,65.89
2022-07-29T17:33:31.203Z,64.11
2022-07-29T17:36:32.888Z,64.58
2022-07-29T17:39:35.533Z,66.51
2022-07-29T17:42:37.002Z,68.10
2022-07-29T17:45:48.759Z,67.87
2022-07-29T17:48:52.630Z,68.47
2022-07-29T17:52:00.762Z,69.70
2022-07-29T17:55:02.704Z,70.81
2022-07-29T17:58:04.227Z,71.39
2022-07-29T18:01:06.300Z,73.07
2022-07-29T18:04:08.944Z,73.50
2022-07-29T18:07:11.492Z,74.46
2022-07-29T18:10:13.007Z,75.28
2022-07-29T18:13:14.559Z,80.28
2022-07-29T18:16:16.116Z,82.49
2022-07-29T18:19:17.594Z,82.23
2022-07-29T18:22:19.596Z,80.44
2022-07-29T18:25:21.259Z,79.94
2022-07-29T18:28:22.772Z,80.15
2022-07-29T18:31:25.272Z,82.21
2022-07-29T18:34:27.511Z,82.11
2022-07-29T18:38:00.915Z,80.18
2022-07-29T18:40:50.804Z,81.25
2022-07-29T18:43:52.261Z,76.99
2022-07-29T18:46:55.529Z,75.75
2022-07-29T18:49:57.074Z,73.89
2022-07-29T18:53:01.085Z,76.90
2022-07-29T18:56:03.412Z,76.41
2022-07-29T18:59:04.985Z,73.62
2022-07-29T19:02:06.992Z,75.10
2022-07-29T19:05:10.030Z,74.46
2022-07-29T19:08:11.695Z,75.90
2022-07-29T19:11:13.265Z,74.95
2022-07-29T19:14:14.842Z,75.17
2022-07-29T19:17:16.468Z,71.82
2022-07-29T19:20:18.066Z,73.32
2022-07-29T19:23:19.725Z,73.30
2022-07-29T19:26:21.326Z,75.08
2022-07-29T19:29:24.768Z,76.96
2022-07-29T19:32:26.836Z,77.64
2022-07-29T19:35:28.537Z,74.86
2022-07-29T19:38:30.030Z,75.14
2022-07-29T19:41:31.579Z,80.13
2022-07-29T19:44:33.017Z,79.50
2022-07-29T19:47:34.775Z,78.95
2022-07-29T19:50:36.867Z,79.52
2022-07-29T19:53:38.440Z,80.19
2022-07-29T19:56:42.260Z,79.53
2022-07-29T19:59:44.247Z,84.90
2022-07-29T20:02:46.470Z,82.70
2022-07-29T20:05:51.022Z,84.35
2022-07-29T20:08:56.719Z,84.72
2022-07-29T20:11:59.738Z,81.61
2022-07-29T20:15:01.310Z,80.76
2022-07-29T20:18:02.813Z,83.69
2022-07-29T20:21:04.974Z,82.90
2022-07-29T20:24:07.120Z,83.75
2022-07-29T20:27:13.557Z,86.61
2022-07-29T20:30:15.488Z,83.74
2022-07-29T20:33:19.222Z,86.61
2022-07-29T20:36:20.810Z,87.60
2022-07-29T20:39:22.268Z,93.78
2022-07-29T20:42:26.384Z,92.02
2022-07-29T20:45:27.860Z,94.08
2022-07-29T20:48:29.373Z,94.28
2022-07-29T20:51:32.250Z,95.27
2022-07-29T20:54:45.790Z,97.84
2022-07-29T20:57:47.237Z,98.86
2022-07-29T21:00:49.081Z,99.16
2022-07-29T21:03:50.802Z,98.36
2022-07-29T21:06:53.359Z,98.03
2022-07-29T21:09:54.987Z,100.00
2022-07-29T21:12:56.468Z,100.00
2022-07-29T21:16:02.008Z,100.00
2022-07-29T21:19:05.817Z,100.00
2022-07-29T21:22:07.439Z,100.00
2022-07-29T21:25:10.689Z,100.00
2022-07-29T21:28:50.179Z,100.00
2022-07-29T21:31:52.094Z,100.00
2022-07-29T21:34:53.642Z,100.00
2022-07-29T21:37:55.166Z,100.00
2022-07-29T21:40:57.310Z,100.00
2022-07-29T21:43:59.618Z,100.00
2022-07-29T21:47:03.430Z,100.00
2022-07-29T21:50:05.677Z,100.00
2022-07-29T21:53:07.179Z,100.00
2022-07-29T21:56:14.867Z,100.00
2022-07-29T21:59:16.750Z,100.00
2022-07-29T22:02:18.509Z,100.00
2022-07-29T22:05:20.458Z,100.00
2022-07-29T22:08:21.864Z,100.00
2022-07-29T22:11:23.322Z,100.00
2022-07-29T22:14:24.782Z,100.00
2022-07-29T22:17:36.038Z,100.00
2022-07-29T22:20:38.595Z,100.00
2022-07-29T22:23:43.526Z,100.00
2022-07-29T22:26:44.982Z,100.00
2022-07-29T22:29:46.462Z,100.00
2022-07-29T22:32:49.552Z,100.00
2022-07-29T22:35:51.061Z,100.00
2022-07-29T22:38:52.465Z,100.00
2022-07-29T22:41:53.999Z,100.00
2022-07-29T22:44:58.459Z,100.00
2022-07-29T22:47:59.950Z,100.00
2022-07-29T22:51:01.392Z,100.00
2022-07-29T22:54:03.997Z,100.00
2022-07-29T22:57:06.168Z,100.00
2022-07-29T23:00:08.595Z,100.00
2022-07-29T23:03:10.109Z,100.00
2022-07-29T23:06:11.615Z,100.00
2022-07-29T23:09:13.061Z,100.00
2022-07-29T23:12:14.615Z,100.00
2022-07-29T23:15:16.081Z,100.00
2022-07-29T23:18:19.637Z,100.00
2022-07-29T23:21:21.108Z,100.00
2022-07-29T23:24:22.614Z,100.00
2022-07-29T23:27:24.152Z,100.00
2022-07-29T23:30:25.839Z,100.00
2022-07-29T23:33:27.840Z,100.00
2022-07-29T23:36:29.526Z,100.00
2022-07-29T23:39:31.023Z,100.00
2022-07-29T23:42:32.578Z,100.00
2022-07-29T23:45:44.609Z,100.00
2022-07-29T23:48:50.121Z,100.00
2022-07-29T23:51:51.680Z,100.00
2022-07-29T23:54:54.553Z,100.00
2022-07-29T23:58:15.985Z,100.00
